Time;durP1;ratioP1;P1;durP2;ratioP2;P2;SDS_P1;SDS_P2;PMS_P1;PMS_P2;Temp;Humidity;BMP_temperature;BMP_pressure;BME280_temperature;BME280_humidity;BME280_pressure;Samples;Min_cycle;Max_cycle;Signal;HPM_P1;HPM_P2
2021/06/13 00:02:08;;;;;;;;;;;;;;;11.58;67.66;101809.97;4915363;29;19915;-74
2021/06/13 00:04:33;;;;;;;;;;;;;;;11.59;68.86;101799.13;4883013;29;20743;-73
2021/06/13 00:06:59;;;;;;;;;;;;;;;11.62;68.48;101806.88;4898226;29;20029;-73
2021/06/13 00:09:24;;;;;;;;;;;;;;;11.64;68.58;101803.22;4898554;29;19926;-73
2021/06/13 00:11:49;;;;;;;;;;;;;;;11.71;68.30;101807.84;4918435;29;20349;-74
2021/06/13 00:14:15;;;;;;;;;;;;;;;11.68;68.69;101812.63;4902367;29;20003;-73
2021/06/13 00:16:40;;;;;;;;;;;;;;;11.67;69.57;101814.47;4886560;29;19915;-73
2021/06/13 00:19:06;;;;;;;;;;;;;;;11.66;67.83;101814.59;4902291;29;19915;-74
2021/06/13 00:21:31;;;;;;;;;;;;;;;11.62;69.17;101814.88;4919031;29;19915;-73
2021/06/13 00:23:56;;;;;;;;;;;;;;;11.56;69.59;101819.97;4918985;29;19937;-74
2021/06/13 00:26:21;;;;;;;;;;;;;;;11.63;69.82;101813.06;4901975;29;20041;-74
2021/06/13 00:28:47;;;;;;;;;;;;;;;11.56;69.77;101812.78;4918815;29;19915;-73
2021/06/13 00:31:12;;;;;;;;;;;;;;;11.50;70.42;101825.91;4902373;29;20066;-73
2021/06/13 00:33:38;;;;;;;;;;;;;;;11.31;70.57;101818.75;4902257;29;19914;-73
2021/06/13 00:36:03;;;;;;;;;;;;;;;11.25;70.73;101833.50;4901758;29;20343;-73
2021/06/13 00:38:28;;;;;;;;;;;;;;;11.19;70.45;101834.03;4902059;29;19915;-73
2021/06/13 00:40:54;;;;;;;;;;;;;;;11.23;70.92;101840.81;4902023;29;19919;-73
2021/06/13 00:43:21;;;;;;;;;;;;;;;11.27;70.38;101842.22;4886610;29;20292;-73
2021/06/13 00:45:46;;;;;;;;;;;;;;;11.27;70.03;101839.53;4902022;29;19914;-73
2021/06/13 00:48:11;;;;;;;;;;;;;;;11.22;69.82;101828.44;4901522;29;19926;-73
2021/06/13 00:50:40;;;;;;;;;;;;;;;11.26;69.45;101829.84;4901847;29;19915;-73
2021/06/13 00:53:07;;;;;;;;;;;;;;;11.33;69.65;101824.75;4902076;29;20016;-73
2021/06/13 00:55:36;;;;;;;;;;;;;;;11.34;69.67;101829.97;4918347;29;19929;-74
2021/06/13 00:58:03;;;;;;;;;;;;;;;11.37;69.85;101835.03;4918116;29;20242;-73
2021/06/13 01:00:28;;;;;;;;;;;;;;;11.43;69.23;101838.16;4901706;29;20223;-73
2021/06/13 01:02:54;;;;;;;;;;;;;;;11.48;69.89;101835.91;4901768;29;19925;-73
2021/06/13 01:05:22;;;;;;;;;;;;;;;11.53;70.22;101837.16;4901563;29;19970;-74
2021/06/13 01:07:52;;;;;;;;;;;;;;;11.60;70.34;101840.09;4885736;29;19919;-74
2021/06/13 01:10:23;;;;;;;;;;;;;;;11.53;70.57;101841.66;4885859;29;20246;-73
2021/06/13 01:12:55;;;;;;;;;;;;;;;11.42;70.33;101845.31;4918309;29;20602;-74
2021/06/13 01:15:23;;;;;;;;;;;;;;;11.39;71.35;101846.44;4885965;29;20249;-73
2021/06/13 01:17:51;;;;;;;;;;;;;;;11.42;72.23;101839.97;4885435;29;19958;-73
2021/06/13 01:20:20;;;;;;;;;;;;;;;11.29;72.92;101840.25;4918076;29;19915;-73
2021/06/13 01:23:04;;;;;;;;;;;;;;;11.39;73.87;101845.59;4917782;29;19915;-74
2021/06/13 01:25:33;;;;;;;;;;;;;;;11.27;73.62;101841.38;4885730;29;20001;-74
2021/06/13 01:28:01;;;;;;;;;;;;;;;11.31;73.59;101846.31;4917560;29;20001;-74
2021/06/13 01:30:28;;;;;;;;;;;;;;;11.35;73.72;101847.69;4901206;29;19958;-74
2021/06/13 01:32:56;;;;;;;;;;;;;;;11.37;72.93;101861.78;4901127;29;19919;-73
2021/06/13 01:35:22;;;;;;;;;;;;;;;11.35;72.59;101845.03;4900867;29;19915;-73
2021/06/13 01:37:50;;;;;;;;;;;;;;;11.40;71.69;101842.78;4900983;29;19957;-73
2021/06/13 01:40:18;;;;;;;;;;;;;;;11.39;72.35;101850.94;4901186;29;20332;-73
2021/06/13 01:42:49;;;;;;;;;;;;;;;11.24;72.51;101836.28;4917726;29;19915;-74
2021/06/13 01:45:18;;;;;;;;;;;;;;;11.29;72.77;101842.94;4900920;29;20360;-74
2021/06/13 01:47:44;;;;;;;;;;;;;;;11.35;72.48;101844.19;4900528;29;19923;-73
2021/06/13 01:50:10;;;;;;;;;;;;;;;11.21;72.90;101845.44;4900803;29;19985;-73
2021/06/13 01:52:38;;;;;;;;;;;;;;;11.17;73.22;101841.38;4900847;29;19915;-74
2021/06/13 01:55:08;;;;;;;;;;;;;;;10.96;74.55;101849.50;4917302;29;19919;-73
2021/06/13 01:57:36;;;;;;;;;;;;;;;11.01;74.13;101844.59;4900459;29;20436;-73
2021/06/13 02:00:40;;;;;;;;;;;;;;;10.98;74.27;101842.22;4897124;29;19922;-74
2021/06/13 02:03:13;;;;;;;;;;;;;;;10.84;75.11;101845.25;4886055;29;19958;-74
2021/06/13 02:05:47;;;;;;;;;;;;;;;10.81;75.31;101849.03;4885828;29;19919;-74
2021/06/13 02:08:14;;;;;;;;;;;;;;;10.77;75.42;101853.00;4900413;29;19923;-73
2021/06/13 02:10:47;;;;;;;;;;;;;;;10.80;75.17;101844.69;4900396;29;19915;-73
2021/06/13 02:13:14;;;;;;;;;;;;;;;10.90;74.94;101853.56;4884919;29;20014;-74
2021/06/13 02:15:42;;;;;;;;;;;;;;;10.93;74.93;101855.13;4900358;29;19930;-73
2021/06/13 02:18:08;;;;;;;;;;;;;;;11.04;74.61;101848.81;4916734;29;20253;-73
2021/06/13 02:20:38;;;;;;;;;;;;;;;11.01;74.92;101852.63;4884927;29;20009;-74
2021/06/13 02:23:04;;;;;;;;;;;;;;;11.06;74.35;101844.19;4900068;29;19918;-74
2021/06/13 02:25:30;;;;;;;;;;;;;;;11.17;74.22;101855.59;4884633;29;19922;-74
2021/06/13 02:27:58;;;;;;;;;;;;;;;11.20;74.04;101851.78;4899687;29;19930;-73
2021/06/13 02:30:30;;;;;;;;;;;;;;;11.21;74.64;101853.47;4900629;29;19926;-74
2021/06/13 02:32:57;;;;;;;;;;;;;;;11.17;74.30;101852.06;4899528;29;19915;-73
2021/06/13 02:35:23;;;;;;;;;;;;;;;11.23;73.48;101864.88;4899968;29;19922;-73
2021/06/13 02:37:52;;;;;;;;;;;;;;;11.25;73.77;101867.41;4916206;29;19915;-74
2021/06/13 02:40:24;;;;;;;;;;;;;;;11.27;73.41;101865.44;4899931;29;20378;-73
2021/06/13 02:42:49;;;;;;;;;;;;;;;11.19;72.88;101863.44;4916627;29;20025;-73
2021/06/13 02:45:20;;;;;;;;;;;;;;;11.26;72.75;101872.63;4899763;29;20051;-73
2021/06/13 02:47:47;;;;;;;;;;;;;;;11.22;73.08;101876.56;4883996;29;19930;-73
2021/06/13 02:50:13;;;;;;;;;;;;;;;11.27;72.98;101874.31;4899511;29;20009;-73
2021/06/13 02:52:41;;;;;;;;;;;;;;;11.31;72.79;101869.53;4899634;29;19926;-74
2021/06/13 02:55:09;;;;;;;;;;;;;;;11.33;72.40;101880.91;4899547;29;19930;-74
2021/06/13 02:57:38;;;;;;;;;;;;;;;11.35;72.89;101884.28;4883728;29;20082;-74
2021/06/13 03:00:05;;;;;;;;;;;;;;;11.37;73.22;101883.16;4899558;29;20412;-74
2021/06/13 03:02:40;;;;;;;;;;;;;;;11.37;72.62;101880.50;4899561;29;19915;-74
2021/06/13 03:05:06;;;;;;;;;;;;;;;11.45;72.84;101881.63;4899306;29;20264;-74
2021/06/13 03:07:33;;;;;;;;;;;;;;;11.44;72.22;101883.44;4915778;29;19934;-74
2021/06/13 03:10:01;;;;;;;;;;;;;;;11.36;71.58;101883.31;4899294;29;19919;-74
2021/06/13 03:12:28;;;;;;;;;;;;;;;11.45;71.71;101894.97;4916049;29;19915;-73
2021/06/13 03:14:53;;;;;;;;;;;;;;;11.41;71.61;101894.44;4883747;29;19947;-73
2021/06/13 03:17:21;;;;;;;;;;;;;;;11.38;71.83;101898.25;4883249;29;19919;-73
2021/06/13 03:19:47;;;;;;;;;;;;;;;11.43;71.97;101913.03;4899266;29;19958;-73
2021/06/13 03:22:14;;;;;;;;;;;;;;;11.44;72.56;101912.03;4915838;29;19970;-74
2021/06/13 03:24:40;;;;;;;;;;;;;;;11.51;72.78;101907.81;4899484;29;19915;-74
2021/06/13 03:27:07;;;;;;;;;;;;;;;11.55;71.76;101914.56;4898724;29;19919;-74
2021/06/13 03:29:33;;;;;;;;;;;;;;;11.58;71.75;101908.94;4899205;29;19915;-74
2021/06/13 03:31:59;;;;;;;;;;;;;;;11.59;72.14;101908.81;4898880;29;19975;-74
2021/06/13 03:34:25;;;;;;;;;;;;;;;11.58;72.14;101908.94;4898967;29;20014;-73
2021/06/13 03:36:52;;;;;;;;;;;;;;;11.63;70.63;101906.69;4898714;29;19962;-73
2021/06/13 03:39:18;;;;;;;;;;;;;;;11.63;70.30;101906.69;4898888;29;19915;-74
2021/06/13 03:41:45;;;;;;;;;;;;;;;11.60;70.06;101909.63;4915645;29;19919;-74
2021/06/13 03:44:10;;;;;;;;;;;;;;;11.75;69.33;101918.94;4898765;29;19946;-74
2021/06/13 03:46:36;;;;;;;;;;;;;;;11.71;69.01;101911.34;4914439;29;19968;-74
2021/06/13 03:49:02;;;;;;;;;;;;;;;11.83;69.88;101918.22;4883290;29;19969;-74
2021/06/13 03:51:28;;;;;;;;;;;;;;;11.80;70.80;101921.19;4898916;29;19915;-74
2021/06/13 03:53:56;;;;;;;;;;;;;;;11.65;71.86;101923.44;4883322;29;20246;-75
2021/06/13 03:56:23;;;;;;;;;;;;;;;11.52;72.26;101923.72;4898550;29;20253;-74
2021/06/13 03:58:49;;;;;;;;;;;;;;;11.34;73.75;101923.56;4898931;29;20413;-76
2021/06/13 04:01:15;;;;;;;;;;;;;;;11.20;75.79;101934.66;4915302;29;19931;-78
2021/06/13 04:03:41;;;;;;;;;;;;;;;11.19;76.66;101947.19;4898911;29;20297;-77
2021/06/13 04:06:07;;;;;;;;;;;;;;;10.99;77.29;101940.91;4882901;29;19915;-77
2021/06/13 04:08:32;;;;;;;;;;;;;;;10.93;78.06;101941.47;4898664;29;20436;-77
2021/06/13 04:10:58;;;;;;;;;;;;;;;11.02;79.63;101944.31;4915439;29;19914;-77
2021/06/13 04:13:24;;;;;;;;;;;;;;;11.01;78.78;101945.31;4898601;29;20597;-77
2021/06/13 04:15:50;;;;;;;;;;;;;;;11.11;78.50;101938.16;4915030;29;20009;-77
2021/06/13 04:18:15;;;;;;;;;;;;;;;11.10;78.26;101939.13;4898661;29;20244;-77
2021/06/13 04:20:42;;;;;;;;;;;;;;;11.20;78.23;101948.03;4915237;29;19915;-77
2021/06/13 04:23:09;;;;;;;;;;;;;;;11.21;77.68;101939.00;4915082;29;19915;-76
2021/06/13 04:25:35;;;;;;;;;;;;;;;11.29;79.38;101938.34;4898506;29;20276;-76
2021/06/13 04:28:00;;;;;;;;;;;;;;;11.31;78.64;101942.56;4898107;29;19919;-76
2021/06/13 04:30:27;;;;;;;;;;;;;;;11.43;77.92;101934.41;4898487;29;19910;-75
2021/06/13 04:32:52;;;;;;;;;;;;;;;11.45;76.90;101930.63;4915062;29;20341;-74
2021/06/13 04:35:17;;;;;;;;;;;;;;;11.49;77.87;101929.34;4914896;29;19974;-74
2021/06/13 04:37:43;;;;;;;;;;;;;;;11.62;78.15;101942.44;4914737;29;19919;-74
2021/06/13 04:40:09;;;;;;;;;;;;;;;11.64;78.13;101955.69;4898235;29;19971;-74
2021/06/13 04:42:35;;;;;;;;;;;;;;;11.65;75.65;101952.03;4898067;29;19919;-75
2021/06/13 04:45:06;;;;;;;;;;;;;;;11.68;75.36;101952.56;4914751;29;19933;-74
2021/06/13 04:47:31;;;;;;;;;;;;;;;11.73;75.16;101953.03;4914475;29;19978;-74
2021/06/13 04:49:57;;;;;;;;;;;;;;;11.75;75.48;101952.84;4914697;29;19915;-74
2021/06/13 04:52:23;;;;;;;;;;;;;;;11.84;73.03;101954.69;4898110;29;19915;-74
2021/06/13 04:55:06;;;;;;;;;;;;;;;11.91;71.42;101958.50;4914800;29;19998;-74
2021/06/13 04:57:38;;;;;;;;;;;;;;;11.91;71.97;101960.34;4884689;29;19953;-74
2021/06/13 05:00:04;;;;;;;;;;;;;;;12.02;70.96;101957.53;4918333;29;20400;-74
2021/06/13 05:02:29;;;;;;;;;;;;;;;12.20;71.46;101961.19;4901691;29;19919;-74
2021/06/13 05:04:55;;;;;;;;;;;;;;;12.33;71.46;101968.06;4901457;29;19915;-73
2021/06/13 05:07:21;;;;;;;;;;;;;;;12.29;69.19;101955.94;4917707;29;19929;-74
2021/06/13 05:09:46;;;;;;;;;;;;;;;12.38;68.33;101960.41;4918011;29;19925;-73
2021/06/13 05:12:12;;;;;;;;;;;;;;;12.47;67.37;101956.88;4917949;29;19915;-73
2021/06/13 05:14:37;;;;;;;;;;;;;;;12.66;68.35;101972.88;4886055;29;19970;-74
2021/06/13 05:17:02;;;;;;;;;;;;;;;12.83;66.52;101962.38;4900918;29;19919;-74
2021/06/13 05:19:28;;;;;;;;;;;;;;;12.98;66.03;101971.63;4901254;29;19915;-74
2021/06/13 05:21:53;;;;;;;;;;;;;;;12.94;66.35;101982.81;4901314;29;19931;-64
2021/06/13 05:24:18;;;;;;;;;;;;;;;13.16;65.78;101976.19;4917768;29;19926;-64
2021/06/13 05:26:44;;;;;;;;;;;;;;;13.40;65.24;101973.00;4917433;29;19923;-64
2021/06/13 05:29:09;;;;;;;;;;;;;;;13.62;65.52;101977.91;4901111;29;19983;-65
2021/06/13 05:31:34;;;;;;;;;;;;;;;13.60;66.65;101973.69;4901046;29;20404;-64
2021/06/13 05:33:59;;;;;;;;;;;;;;;13.42;64.50;101971.00;4917406;29;20313;-65
2021/06/13 05:36:25;;;;;;;;;;;;;;;13.45;62.43;101984.13;4917172;29;20024;-65
2021/06/13 05:38:50;;;;;;;;;;;;;;;13.59;63.84;101982.75;4917550;29;20341;-65
2021/06/13 05:41:15;;;;;;;;;;;;;;;13.09;63.30;101981.34;4900718;29;20001;-64
2021/06/13 05:43:41;;;;;;;;;;;;;;;13.06;64.15;101993.19;4885360;29;20330;-64
2021/06/13 05:46:06;;;;;;;;;;;;;;;13.06;64.19;101990.53;4917271;29;19955;-65
2021/06/13 05:48:33;;;;;;;;;;;;;;;13.36;65.23;102003.78;4900763;29;19919;-64
2021/06/13 05:50:59;;;;;;;;;;;;;;;13.35;63.48;102007.47;4900226;29;19923;-65
2021/06/13 05:53:24;;;;;;;;;;;;;;;13.20;62.55;102005.25;4917009;29;19931;-65
2021/06/13 05:55:49;;;;;;;;;;;;;;;13.35;62.49;102011.00;4916657;29;20372;-64
2021/06/13 05:58:15;;;;;;;;;;;;;;;13.85;60.79;102009.69;4900346;29;19937;-65
2021/06/13 06:00:40;;;;;;;;;;;;;;;14.05;60.61;102021.13;4900293;29;20261;-65
2021/06/13 06:03:08;;;;;;;;;;;;;;;14.88;57.44;102015.34;4916909;29;19915;-65
2021/06/13 06:05:34;;;;;;;;;;;;;;;15.12;55.27;102018.13;4916792;29;20337;-65
2021/06/13 06:08:00;;;;;;;;;;;;;;;14.83;55.21;102009.59;4915891;29;19923;-65
2021/06/13 06:10:26;;;;;;;;;;;;;;;15.13;53.54;102000.19;4884530;29;19915;-65
2021/06/13 06:12:55;;;;;;;;;;;;;;;15.74;52.89;102015.19;4900118;29;20591;-65
2021/06/13 06:15:21;;;;;;;;;;;;;;;15.22;51.55;102014.47;4916515;29;19919;-65
2021/06/13 06:17:47;;;;;;;;;;;;;;;15.25;52.45;102006.09;4898674;29;19925;-65
2021/06/13 06:20:13;;;;;;;;;;;;;;;15.97;50.56;102018.06;4899627;29;19922;-65
2021/06/13 06:22:39;;;;;;;;;;;;;;;15.91;50.84;102007.94;4916808;29;19914;-65
2021/06/13 06:25:05;;;;;;;;;;;;;;;16.16;50.53;102013.38;4916804;29;19918;-65
2021/06/13 06:27:30;;;;;;;;;;;;;;;16.80;48.10;102025.09;4916383;29;19919;-65
2021/06/13 06:29:56;;;;;;;;;;;;;;;16.25;50.47;102028.53;4900099;29;19926;-65
2021/06/13 06:32:21;;;;;;;;;;;;;;;16.98;50.38;102030.28;4900047;29;19943;-65
2021/06/13 06:34:46;;;;;;;;;;;;;;;16.30;48.01;102049.56;4916602;29;19958;-65
2021/06/13 06:37:12;;;;;;;;;;;;;;;15.91;50.73;102042.97;4899781;29;19915;-65
2021/06/13 06:39:37;;;;;;;;;;;;;;;16.43;49.12;102050.72;4899822;29;19918;-65
2021/06/13 06:42:02;;;;;;;;;;;;;;;16.67;48.24;102059.81;4899994;29;19998;-65
2021/06/13 06:44:27;;;;;;;;;;;;;;;16.54;48.27;102044.16;4916615;29;20265;-65
2021/06/13 06:46:53;;;;;;;;;;;;;;;16.50;47.67;102044.66;4899731;29;20292;-65
2021/06/13 06:49:18;;;;;;;;;;;;;;;16.86;47.69;102051.38;4899645;29;19919;-65
2021/06/13 06:51:43;;;;;;;;;;;;;;;17.13;47.40;102057.38;4916405;29;20018;-65
2021/06/13 06:54:08;;;;;;;;;;;;;;;17.09;47.90;102058.72;4899613;29;19922;-65
2021/06/13 06:56:34;;;;;;;;;;;;;;;16.50;48.75;102052.75;4883745;29;19915;-65
2021/06/13 06:58:59;;;;;;;;;;;;;;;16.36;47.29;102057.81;4916159;29;20263;-65
2021/06/13 07:01:24;;;;;;;;;;;;;;;17.34;46.58;102061.34;4884019;29;19914;-65
2021/06/13 07:03:50;;;;;;;;;;;;;;;17.84;44.24;102060.94;4916185;29;19923;-65
2021/06/13 07:06:15;;;;;;;;;;;;;;;18.66;43.33;102067.53;4915882;29;19923;-65
2021/06/13 07:08:40;;;;;;;;;;;;;;;18.78;41.23;102052.59;4899163;29;19930;-65
2021/06/13 07:11:06;;;;;;;;;;;;;;;18.25;42.53;102054.41;4916065;29;19915;-65
2021/06/13 07:13:31;;;;;;;;;;;;;;;18.44;41.18;102055.75;4899233;29;19974;-65
2021/06/13 07:15:57;;;;;;;;;;;;;;;17.97;43.68;102063.06;4899055;29;19955;-65
2021/06/13 07:18:22;;;;;;;;;;;;;;;18.00;44.17;102064.56;4899343;29;19973;-65
2021/06/13 07:20:47;;;;;;;;;;;;;;;18.81;42.92;102059.50;4915739;29;19919;-65
2021/06/13 07:23:13;;;;;;;;;;;;;;;17.71;46.42;102072.28;4915789;29;20022;-65
2021/06/13 07:25:38;;;;;;;;;;;;;;;16.65;46.20;102060.00;4899407;29;20357;-65
2021/06/13 07:28:05;;;;;;;;;;;;;;;15.81;47.97;102072.75;4915478;29;20051;-65
2021/06/13 07:30:31;;;;;;;;;;;;;;;15.17;50.76;102074.13;4899069;29;19914;-65
2021/06/13 07:32:56;;;;;;;;;;;;;;;15.05;50.39;102073.56;4899048;29;19915;-65
2021/06/13 07:35:22;;;;;;;;;;;;;;;15.37;51.21;102077.44;4915643;29;19915;-65
2021/06/13 07:37:47;;;;;;;;;;;;;;;16.07;50.03;102074.47;4883116;29;20013;-65
2021/06/13 07:40:13;;;;;;;;;;;;;;;16.72;47.83;102078.19;4915616;29;19926;-65
2021/06/13 07:42:39;;;;;;;;;;;;;;;16.28;49.64;102076.69;4883363;29;19914;-65
2021/06/13 07:45:06;;;;;;;;;;;;;;;16.64;49.63;102077.16;4898945;29;19935;-65
2021/06/13 07:47:31;;;;;;;;;;;;;;;16.89;49.50;102096.06;4898593;29;20396;-65
2021/06/13 07:49:58;;;;;;;;;;;;;;;16.20;49.38;102095.53;4915762;29;19946;-65
2021/06/13 07:52:23;;;;;;;;;;;;;;;16.61;49.98;102104.47;4898864;29;20264;-65
2021/06/13 07:54:48;;;;;;;;;;;;;;;16.65;48.83;102099.59;4898831;29;19915;-65
2021/06/13 07:57:14;;;;;;;;;;;;;;;16.71;48.76;102111.53;4898449;29;20404;-65
2021/06/13 07:59:39;;;;;;;;;;;;;;;16.28;47.50;102103.63;4898798;29;19998;-65
2021/06/13 08:02:05;;;;;;;;;;;;;;;16.35;47.82;102114.59;4898835;29;19915;-65
2021/06/13 08:04:35;;;;;;;;;;;;;;;16.22;48.48;102106.97;4915317;29;19941;-65
2021/06/13 08:07:01;;;;;;;;;;;;;;;16.01;49.52;102107.44;4898240;29;19919;-65
2021/06/13 08:09:26;;;;;;;;;;;;;;;15.47;49.57;102115.81;4898534;29;19915;-65
2021/06/13 08:11:52;;;;;;;;;;;;;;;15.92;49.51;102114.69;4898568;29;20018;-65
2021/06/13 08:14:17;;;;;;;;;;;;;;;16.17;47.82;102123.66;4915255;29;19914;-65
2021/06/13 08:16:42;;;;;;;;;;;;;;;16.02;47.74;102128.00;4914770;29;19930;-65
2021/06/13 08:19:08;;;;;;;;;;;;;;;16.65;49.41;102129.25;4915157;29;20341;-66
2021/06/13 08:21:35;;;;;;;;;;;;;;;17.54;47.32;102118.47;4915155;29;19919;-65
2021/06/13 08:24:00;;;;;;;;;;;;;;;18.40;46.18;102114.75;4883099;29;19915;-66
2021/06/13 08:26:26;;;;;;;;;;;;;;;19.04;45.47;102114.38;4914856;29;20005;-66
2021/06/13 08:28:51;;;;;;;;;;;;;;;19.80;43.55;102125.84;4915220;29;19915;-66
2021/06/13 08:31:17;;;;;;;;;;;;;;;18.19;45.35;102136.19;4899080;29;19922;-66
2021/06/13 08:33:42;;;;;;;;;;;;;;;17.73;46.14;102132.38;4902473;29;20719;-66
2021/06/13 08:36:07;;;;;;;;;;;;;;;17.02;49.19;102134.16;4918649;29;19938;-66
2021/06/13 08:38:33;;;;;;;;;;;;;;;16.68;49.63;102127.06;4902445;29;20287;-66
2021/06/13 08:40:58;;;;;;;;;;;;;;;16.22;50.68;102124.00;4902263;29;19990;-65
2021/06/13 08:43:23;;;;;;;;;;;;;;;16.59;49.75;102138.84;4918874;29;19919;-66
2021/06/13 08:45:49;;;;;;;;;;;;;;;16.55;51.56;102126.75;4902127;29;19922;-65
2021/06/13 08:48:15;;;;;;;;;;;;;;;17.32;48.52;102133.56;4918609;29;19923;-65
2021/06/13 08:50:40;;;;;;;;;;;;;;;17.21;50.55;102137.47;4886369;29;19925;-65
2021/06/13 08:53:06;;;;;;;;;;;;;;;16.54;50.98;102153.84;4901979;29;19919;-65
2021/06/13 08:55:32;;;;;;;;;;;;;;;16.41;53.33;102146.25;4918652;29;20006;-66
2021/06/13 08:57:58;;;;;;;;;;;;;;;17.84;52.43;102150.09;4918293;29;19926;-66
2021/06/13 09:00:25;;;;;;;;;;;;;;;17.96;49.85;102146.97;4901919;29;20230;-66
2021/06/13 09:02:50;;;;;;;;;;;;;;;18.75;48.32;102153.00;4918596;29;20257;-66
2021/06/13 09:05:19;;;;;;;;;;;;;;;19.00;47.85;102144.72;4918274;29;19921;-66
2021/06/13 09:07:49;;;;;;;;;;;;;;;18.18;49.03;102161.56;4918195;29;20618;-66
2021/06/13 09:10:18;;;;;;;;;;;;;;;17.85;49.46;102150.94;4901704;29;19918;-66
2021/06/13 09:12:43;;;;;;;;;;;;;;;17.60;49.36;102153.69;4918361;29;20365;-66
2021/06/13 09:15:08;;;;;;;;;;;;;;;17.09;50.75;102153.16;4901614;29;19914;-66
2021/06/13 09:17:38;;;;;;;;;;;;;;;17.72;50.25;102157.72;4917938;29;20329;-66
2021/06/13 09:20:23;;;;;;;;;;;;;;;17.11;50.65;102153.84;4918054;29;19929;-66
2021/06/13 09:23:06;;;;;;;;;;;;;;;17.22;50.17;102158.88;4918231;29;19919;-66
2021/06/13 09:25:33;;;;;;;;;;;;;;;18.00;48.91;102168.06;4918078;29;19922;-66
2021/06/13 09:28:09;;;;;;;;;;;;;;;18.77;46.34;102149.13;4917747;29;20022;-66
2021/06/13 09:30:36;;;;;;;;;;;;;;;19.43;44.97;102155.75;4901317;29;19958;-66
2021/06/13 09:33:07;;;;;;;;;;;;;;;19.75;43.10;102157.25;4901472;29;19969;-66
2021/06/13 09:35:32;;;;;;;;;;;;;;;19.24;44.16;102163.41;4901393;29;19915;-66
2021/06/13 09:38:04;;;;;;;;;;;;;;;19.88;43.23;102162.84;4885428;29;19930;-67
2021/06/13 09:40:30;;;;;;;;;;;;;;;19.49;44.96;102171.25;4901222;29;19951;-66
2021/06/13 09:42:55;;;;;;;;;;;;;;;18.81;46.85;102165.84;4917632;29;19919;-66
2021/06/13 09:45:22;;;;;;;;;;;;;;;18.01;48.01;102168.94;4901082;29;19915;-66
2021/06/13 09:47:59;;;;;;;;;;;;;;;17.86;48.98;102169.69;4917425;29;19923;-66
2021/06/13 09:50:36;;;;;;;;;;;;;;;19.04;44.91;102178.50;4917604;29;19926;-66
2021/06/13 09:53:17;;;;;;;;;;;;;;;19.61;43.98;102186.84;4885300;29;19915;-66
2021/06/13 09:55:42;;;;;;;;;;;;;;;20.20;45.13;102175.09;4900883;29;19993;-66
2021/06/13 09:58:08;;;;;;;;;;;;;;;20.33;43.04;102170.88;4900608;29;20362;-66
2021/06/13 10:00:34;;;;;;;;;;;;;;;20.09;43.59;102181.03;4917604;29;19990;-66
2021/06/13 10:03:18;;;;;;;;;;;;;;;18.81;44.77;102182.09;4917506;29;19914;-66
2021/06/13 10:05:56;;;;;;;;;;;;;;;18.45;48.10;102179.97;4917326;29;19922;-66
2021/06/13 10:08:22;;;;;;;;;;;;;;;19.12;48.24;102173.84;4917362;29;20360;-66
2021/06/13 10:10:47;;;;;;;;;;;;;;;19.30;44.92;102176.19;4900815;29;19915;-66
2021/06/13 10:13:13;;;;;;;;;;;;;;;19.81;45.26;102187.16;4900723;29;19923;-66
2021/06/13 10:15:39;;;;;;;;;;;;;;;19.02;47.00;102180.56;4917239;29;19919;-66
2021/06/13 10:18:11;;;;;;;;;;;;;;;18.81;47.36;102197.47;4900079;29;20030;-67
2021/06/13 10:20:36;;;;;;;;;;;;;;;19.13;46.08;102177.41;4900412;29;19926;-66
2021/06/13 10:23:01;;;;;;;;;;;;;;;20.29;43.95;102167.69;4917091;29;19915;-66
2021/06/13 10:25:27;;;;;;;;;;;;;;;21.05;42.68;102165.28;4900407;29;20010;-66
2021/06/13 10:27:52;;;;;;;;;;;;;;;21.37;41.20;102175.72;4899987;29;19922;-67
2021/06/13 10:30:18;;;;;;;;;;;;;;;20.71;41.03;102186.91;4900232;29;20021;-66
2021/06/13 10:32:43;;;;;;;;;;;;;;;19.54;44.53;102176.94;4916906;29;19934;-66
2021/06/13 10:35:09;;;;;;;;;;;;;;;19.76;45.84;102189.59;4916826;29;19919;-66
2021/06/13 10:37:34;;;;;;;;;;;;;;;20.36;43.71;102163.16;4899936;29;19925;-67
2021/06/13 10:40:02;;;;;;;;;;;;;;;20.81;42.97;102179.25;4884505;29;20013;-66
2021/06/13 10:42:27;;;;;;;;;;;;;;;20.80;41.13;102177.59;4916818;29;19915;-67
2021/06/13 10:44:56;;;;;;;;;;;;;;;20.73;40.51;102182.13;4900014;29;20402;-67
2021/06/13 10:47:22;;;;;;;;;;;;;;;21.05;41.87;102181.56;4916271;29;19926;-67
2021/06/13 10:49:53;;;;;;;;;;;;;;;20.87;42.02;102183.91;4899958;29;19919;-67
2021/06/13 10:52:20;;;;;;;;;;;;;;;19.93;45.39;102182.09;4884362;29;19919;-67
2021/06/13 10:54:48;;;;;;;;;;;;;;;18.96;46.53;102176.69;4916085;29;19926;-66
2021/06/13 10:57:13;;;;;;;;;;;;;;;19.41;45.95;102188.44;4916215;29;19918;-67
2021/06/13 10:59:42;;;;;;;;;;;;;;;20.41;45.13;102174.25;4899688;29;19915;-67
2021/06/13 11:02:11;;;;;;;;;;;;;;;21.29;41.75;102185.69;4916332;29;19918;-67
2021/06/13 11:04:43;;;;;;;;;;;;;;;21.78;41.07;102188.50;4884018;29;20325;-67
2021/06/13 11:07:08;;;;;;;;;;;;;;;20.96;42.19;102185.47;4915942;29;19926;-67
2021/06/13 11:09:53;;;;;;;;;;;;;;;20.61;40.82;102176.38;4916294;29;19919;-67
2021/06/13 11:12:38;;;;;;;;;;;;;;;20.97;42.66;102191.72;4899290;29;19994;-67
2021/06/13 11:15:04;;;;;;;;;;;;;;;21.70;40.97;102179.50;4883980;29;19922;-67
2021/06/13 11:17:48;;;;;;;;;;;;;;;21.12;41.72;102184.34;4899112;29;19971;-67
2021/06/13 11:20:34;;;;;;;;;;;;;;;21.69;41.53;102191.38;4916007;29;19919;-67
2021/06/13 11:23:00;;;;;;;;;;;;;;;21.41;40.75;102185.19;4899365;29;20298;-67
2021/06/13 11:25:26;;;;;;;;;;;;;;;20.65;42.01;102188.53;4916014;29;19997;-67
2021/06/13 11:28:10;;;;;;;;;;;;;;;20.44;43.94;102194.78;4883413;29;20014;-67
2021/06/13 11:30:40;;;;;;;;;;;;;;;20.51;43.07;102195.69;4883651;29;19915;-67
2021/06/13 11:33:05;;;;;;;;;;;;;;;21.49;40.83;102190.44;4883342;29;20336;-67
2021/06/13 11:35:31;;;;;;;;;;;;;;;21.67;39.90;102176.31;4915668;29;19914;-67
2021/06/13 11:38:09;;;;;;;;;;;;;;;22.73;38.31;102193.00;4898763;29;19954;-67
2021/06/13 11:40:35;;;;;;;;;;;;;;;22.99;38.23;102199.50;4898977;29;19919;-67
2021/06/13 11:43:30;;;;;;;;;;;;;;;21.83;37.80;102194.19;4899049;29;20009;-67
2021/06/13 11:45:57;;;;;;;;;;;;;;;22.60;39.42;102197.56;4897094;29;19954;-67
2021/06/13 11:48:24;;;;;;;;;;;;;;;22.69;38.16;102201.78;4915792;29;19919;-67
2021/06/13 11:51:08;;;;;;;;;;;;;;;22.65;39.26;102195.91;4899143;29;20337;-67
2021/06/13 11:53:52;;;;;;;;;;;;;;;22.72;37.11;102201.34;4915648;29;19919;-67
2021/06/13 11:56:36;;;;;;;;;;;;;;;22.18;36.71;102200.38;4898357;29;19926;-67
2021/06/13 11:59:01;;;;;;;;;;;;;;;21.60;38.61;102205.34;4898747;29;19915;-67
2021/06/13 12:01:26;;;;;;;;;;;;;;;20.84;39.62;102208.75;4915467;29;19957;-67
2021/06/13 12:03:52;;;;;;;;;;;;;;;21.03;40.29;102197.22;4915534;29;20026;-67
2021/06/13 12:06:18;;;;;;;;;;;;;;;22.39;39.28;102204.03;4914324;29;19966;-67
2021/06/13 12:08:44;;;;;;;;;;;;;;;22.15;39.14;102200.78;4883085;29;19969;-67
2021/06/13 12:11:25;;;;;;;;;;;;;;;21.93;38.47;102208.22;4898727;29;20014;-67
2021/06/13 12:13:51;;;;;;;;;;;;;;;20.91;38.88;102203.34;4898872;29;19946;-67
2021/06/13 12:16:16;;;;;;;;;;;;;;;21.49;41.48;102207.59;4915063;29;20322;-68
2021/06/13 12:18:56;;;;;;;;;;;;;;;22.20;40.53;102206.47;4898782;29;19915;-67
2021/06/13 12:21:24;;;;;;;;;;;;;;;22.15;38.64;102189.91;4898788;29;20269;-68
2021/06/13 12:23:56;;;;;;;;;;;;;;;22.61;38.43;102200.06;4898767;29;19915;-68
2021/06/13 12:29:20;;;;;;;;;;;;;;;22.33;38.09;102205.66;4915294;29;20740;-68
2021/06/13 12:31:45;;;;;;;;;;;;;;;22.74;39.49;102194.66;4898943;29;19937;-68
2021/06/13 12:34:16;;;;;;;;;;;;;;;22.29;37.13;102220.75;4915186;29;20333;-68
2021/06/13 12:36:54;;;;;;;;;;;;;;;22.67;38.05;102206.59;4898415;29;19915;-68
2021/06/13 12:39:38;;;;;;;;;;;;;;;22.15;39.29;102206.22;4898606;29;19926;-68
2021/06/13 12:42:08;;;;;;;;;;;;;;;21.88;39.98;102208.84;4898312;29;19919;-68